aviador You're here:

SCCY Decoded Metar

COYHAIQUE in CHILE
Report Time2018-01-21 06:00:00
UTC Time2018-01-21 06:50:53
Flight Rules vfr VFR
Wind010° at 03 kt
W.Decomp.*RWY 03: 2.6 kt HW 1.5 kt LCW
W.Rank010° ranks 7
Current wind is below 010° avg. (4.6)
Visibility9999 m
Phenomena:N/A
Clouds:N/A
Expected CloudBase > 1,600 ft AGL from Temp-Dew spread
CeilingNone
Temp12°C (ISA -1)
Dew Point08°C (77% RH)
AAT10.5°C
QNH1011 hPa
Density Alt1,122 ft
Elevation1,020 ft
Report Wrong Elevation
Raw Report
METAR SCCY 210600Z AUTO 01003KT 340V050 CAVOK 12/08 Q1011=

Extra information for SCCY:More info

Metar Taf Metar & Taf Last 4 Metars F.Rules Stats Wind Profile Meteogram Temp Stats Airport Information Weather charts Add Link Nearby VenuesMetar ALERT Operation Metar Decoded Social comments